createdAt,value
2023-02-22T00:05:14.546Z,15.53
2023-02-22T00:08:07.492Z,15.68
2023-02-22T00:13:45.197Z,19.17
2023-02-22T00:16:36.955Z,15.13
2023-02-22T00:19:30.635Z,17.87
2023-02-22T00:25:03.084Z,20.52
2023-02-22T00:27:57.240Z,16.42
2023-02-22T00:30:49.432Z,17.55
2023-02-22T00:33:42.995Z,13.10
2023-02-22T00:36:34.289Z,13.60
2023-02-22T00:39:25.674Z,13.18
2023-02-22T00:42:17.805Z,14.18
2023-02-22T00:45:10.137Z,13.72
2023-02-22T00:48:04.618Z,13.30
2023-02-22T00:50:56.175Z,15.13
2023-02-22T00:56:27.133Z,17.75
2023-02-22T01:01:58.805Z,15.40
2023-02-22T01:04:51.118Z,13.28
2023-02-22T01:07:43.301Z,15.40
2023-02-22T01:13:19.205Z,12.85
2023-02-22T01:16:10.743Z,15.55
2023-02-22T01:19:02.771Z,12.53
2023-02-22T01:21:54.855Z,17.17
2023-02-22T01:24:46.136Z,14.15
2023-02-22T01:27:38.559Z,19.32
2023-02-22T01:33:13.852Z,14.23
2023-02-22T01:36:06.892Z,19.73
2023-02-22T01:39:00.188Z,21.12
2023-02-22T01:41:53.885Z,19.77
2023-02-22T01:44:45.591Z,16.42
2023-02-22T01:47:37.155Z,17.35
2023-02-22T01:50:30.707Z,16.30
2023-02-22T01:53:25.091Z,17.98
2023-02-22T01:56:19.296Z,17.15
2023-02-22T02:01:50.942Z,16.52
2023-02-22T02:04:43.672Z,17.65
2023-02-22T02:10:18.268Z,18.30
2023-02-22T02:13:10.350Z,20.85
2023-02-22T02:16:03.284Z,18.20
2023-02-22T02:21:48.126Z,20.05
2023-02-22T02:28:39.143Z,20.27
2023-02-22T02:34:26.642Z,19.70
2023-02-22T02:37:22.121Z,19.77
2023-02-22T02:43:17.874Z,21.52
2023-02-22T02:51:38.794Z,22.50
2023-02-22T02:54:30.779Z,22.25
2023-02-22T02:57:22.756Z,22.80
2023-02-22T03:03:08.759Z,27.62
2023-02-22T03:06:29.518Z,29.60
2023-02-22T03:09:28.574Z,27.17
2023-02-22T03:15:10.365Z,25.35
2023-02-22T03:20:50.495Z,25.90
2023-02-22T03:26:29.854Z,23.87
2023-02-22T03:29:24.748Z,24.40
2023-02-22T03:32:20.204Z,24.10
2023-02-22T03:35:14.637Z,25.35
2023-02-22T03:40:55.376Z,26.52
2023-02-22T03:46:32.021Z,24.63
2023-02-22T03:49:39.649Z,22.35
2023-02-22T03:52:30.079Z,24.05
2023-02-22T03:55:21.420Z,9.08
2023-02-22T03:58:15.421Z,9.00
2023-02-22T04:01:08.538Z,7.40
2023-02-22T04:04:00.496Z,8.10
2023-02-22T04:06:51.949Z,8.93
2023-02-22T04:12:23.980Z,11.43
2023-02-22T04:15:18.494Z,9.93
2023-02-22T04:18:10.078Z,8.78
2023-02-22T04:21:01.370Z,11.00
2023-02-22T04:26:33.494Z,12.95
2023-02-22T04:29:26.384Z,11.28
2023-02-22T04:32:18.321Z,13.98
2023-02-22T04:37:48.785Z,16.37
2023-02-22T04:40:41.418Z,13.68
2023-02-22T04:46:16.948Z,13.60
2023-02-22T04:51:53.064Z,13.80
2023-02-22T04:57:40.455Z,13.78
2023-02-22T05:00:31.919Z,14.80
2023-02-22T05:03:24.641Z,14.13
2023-02-22T05:06:17.908Z,13.60
2023-02-22T05:12:00.845Z,13.10
2023-02-22T05:14:49.105Z,13.48
2023-02-22T05:17:40.380Z,14.00
2023-02-22T05:20:34.085Z,13.18
2023-02-22T05:26:06.632Z,15.25
2023-02-22T05:28:57.875Z,14.35
2023-02-22T05:34:31.110Z,15.03
2023-02-22T05:37:22.683Z,14.35
2023-02-22T05:43:01.105Z,14.20
2023-02-22T05:45:52.514Z,16.87
2023-02-22T05:51:25.119Z,14.60
2023-02-22T05:56:57.905Z,15.05
2023-02-22T06:02:31.572Z,14.13
2023-02-22T06:05:23.224Z,11.97
2023-02-22T06:11:02.753Z,12.90
2023-02-22T06:13:55.009Z,12.07
2023-02-22T06:16:46.450Z,15.45
2023-02-22T06:19:38.102Z,14.43
2023-02-22T06:22:30.259Z,15.75
2023-02-22T06:25:24.372Z,22.32
2023-02-22T06:30:54.108Z,18.90
2023-02-22T06:33:45.832Z,20.52
2023-02-22T06:36:37.097Z,18.98
2023-02-22T06:42:33.270Z,22.87
2023-02-22T06:45:27.355Z,19.40
2023-02-22T06:48:19.054Z,19.23
2023-02-22T06:51:11.570Z,19.92
2023-02-22T06:56:46.112Z,18.73
2023-02-22T06:59:37.651Z,17.92
2023-02-22T07:02:28.874Z,19.12
2023-02-22T07:05:22.581Z,18.57
2023-02-22T07:08:14.787Z,17.73
2023-02-22T07:11:06.852Z,21.25
2023-02-22T07:13:58.224Z,20.97
2023-02-22T07:16:49.494Z,19.23
2023-02-22T07:22:19.316Z,18.35
2023-02-22T07:25:12.433Z,18.10
2023-02-22T07:30:44.743Z,21.30
2023-02-22T07:36:16.079Z,21.82
2023-02-22T07:39:09.005Z,23.47
2023-02-22T07:42:00.780Z,22.80
2023-02-22T07:47:33.468Z,19.35
2023-02-22T07:50:25.959Z,21.12
2023-02-22T07:53:20.040Z,21.75
2023-02-22T07:56:11.239Z,20.02
2023-02-22T08:01:50.442Z,19.27
2023-02-22T08:04:41.445Z,18.35
2023-02-22T08:10:16.531Z,19.62
2023-02-22T08:13:08.253Z,21.65
2023-02-22T08:18:41.281Z,18.85
2023-02-22T08:21:32.527Z,19.57
2023-02-22T08:24:23.913Z,20.35
2023-02-22T08:27:15.072Z,20.48
2023-02-22T08:30:07.929Z,20.95
2023-02-22T08:32:59.485Z,18.80
2023-02-22T08:35:52.058Z,20.92
2023-02-22T08:41:21.528Z,24.00
2023-02-22T08:46:51.732Z,24.00
2023-02-22T08:49:43.050Z,22.15
2023-02-22T08:52:35.346Z,21.15
2023-02-22T08:55:33.126Z,24.27
2023-02-22T08:58:24.962Z,21.75
2023-02-22T09:01:22.022Z,28.17
2023-02-22T09:06:49.927Z,27.62
2023-02-22T09:09:41.381Z,25.60
2023-02-22T09:12:33.515Z,23.38
2023-02-22T09:15:26.727Z,22.93
2023-02-22T09:18:19.351Z,20.40
2023-02-22T09:21:10.512Z,18.02
2023-02-22T09:26:42.757Z,21.85
2023-02-22T09:29:33.779Z,23.18
2023-02-22T09:32:27.559Z,22.52
2023-02-22T09:35:19.435Z,22.77
2023-02-22T09:38:11.698Z,22.82
2023-02-22T09:43:51.583Z,25.77
2023-02-22T09:46:45.509Z,22.10
2023-02-22T09:52:20.027Z,24.77
2023-02-22T09:55:15.790Z,22.02
2023-02-22T09:58:09.847Z,28.35
2023-02-22T10:03:43.766Z,25.97
2023-02-22T10:06:37.218Z,22.17
2023-02-22T10:09:30.553Z,22.52
2023-02-22T10:12:31.567Z,22.65
2023-02-22T10:15:37.301Z,21.75
2023-02-22T10:21:19.722Z,24.12
2023-02-22T10:24:16.333Z,24.45
2023-02-22T10:27:10.393Z,23.38
2023-02-22T10:30:22.176Z,26.02
2023-02-22T10:33:02.437Z,25.02
2023-02-22T10:35:55.354Z,24.70
2023-02-22T10:38:50.568Z,23.35
2023-02-22T10:44:24.254Z,25.37
2023-02-22T10:47:19.545Z,21.50
2023-02-22T10:50:15.661Z,26.57
2023-02-22T10:53:06.967Z,22.50
2023-02-22T10:56:19.223Z,19.85
2023-02-22T11:01:50.613Z,23.65
2023-02-22T11:04:50.828Z,24.25
2023-02-22T11:07:42.837Z,23.98
2023-02-22T11:10:36.244Z,24.15
2023-02-22T11:13:29.655Z,23.07
2023-02-22T11:16:23.790Z,25.37
2023-02-22T11:19:26.376Z,25.92
2023-02-22T11:22:26.060Z,25.00
2023-02-22T11:28:15.381Z,24.18
2023-02-22T11:31:17.688Z,27.55
2023-02-22T11:34:10.864Z,27.67
2023-02-22T11:37:17.678Z,25.30
2023-02-22T11:40:19.876Z,24.98
2023-02-22T11:43:13.657Z,24.12
2023-02-22T11:46:08.810Z,25.75
2023-02-22T11:49:05.117Z,25.23
2023-02-22T11:52:09.468Z,24.85
2023-02-22T11:55:10.867Z,28.77
2023-02-22T12:00:53.541Z,23.65
2023-02-22T12:04:29.079Z,25.68
2023-02-22T12:07:31.049Z,26.33
2023-02-22T12:10:28.955Z,23.90
2023-02-22T12:13:30.094Z,28.05
2023-02-22T12:16:27.615Z,25.15
2023-02-22T12:19:24.616Z,25.08
2023-02-22T12:22:19.038Z,27.67
2023-02-22T12:25:16.125Z,27.90
2023-02-22T12:28:23.663Z,27.58
2023-02-22T12:31:15.573Z,28.15
2023-02-22T12:34:11.954Z,25.20
2023-02-22T12:37:07.928Z,25.10
2023-02-22T12:40:06.502Z,23.25
2023-02-22T12:45:50.485Z,23.67
2023-02-22T12:48:47.568Z,23.65
2023-02-22T12:51:42.610Z,20.15
2023-02-22T12:54:42.066Z,22.82
2023-02-22T12:57:39.308Z,21.02
2023-02-22T13:00:34.031Z,21.82
2023-02-22T13:03:32.956Z,23.45
2023-02-22T13:06:32.337Z,20.92
2023-02-22T13:09:37.549Z,22.22
2023-02-22T13:12:32.883Z,20.08
2023-02-22T13:15:27.614Z,19.52
2023-02-22T13:18:22.801Z,19.70
2023-02-22T13:23:59.428Z,21.50
2023-02-22T13:26:53.517Z,23.05
2023-02-22T13:29:47.559Z,23.92
2023-02-22T13:32:47.317Z,28.65
2023-02-22T13:35:53.567Z,21.80
2023-02-22T13:42:20.224Z,22.95
2023-02-22T13:45:43.308Z,27.45
2023-02-22T13:48:43.651Z,27.60
2023-02-22T13:51:45.141Z,30.60
2023-02-22T13:54:41.049Z,27.25
2023-02-22T13:57:35.651Z,22.98
2023-02-22T14:00:44.721Z,24.47
2023-02-22T14:03:41.515Z,27.40
2023-02-22T14:06:41.700Z,26.07
2023-02-22T14:09:48.346Z,27.27
2023-02-22T14:12:52.236Z,25.80
2023-02-22T14:16:23.315Z,27.45
2023-02-22T14:19:23.091Z,24.98
2023-02-22T14:22:14.844Z,25.77
2023-02-22T14:25:07.747Z,31.33
2023-02-22T14:28:01.403Z,28.57
2023-02-22T14:30:53.887Z,25.05
2023-02-22T14:34:00.120Z,24.87
2023-02-22T14:39:40.733Z,25.08
2023-02-22T14:42:35.530Z,29.10
2023-02-22T14:45:30.175Z,24.75
2023-02-22T14:48:25.982Z,26.95
2023-02-22T14:51:22.771Z,27.48
2023-02-22T14:54:16.477Z,28.60
2023-02-22T14:57:14.998Z,28.35
2023-02-22T15:00:20.962Z,28.62
2023-02-22T15:03:24.094Z,26.95
2023-02-22T15:06:19.017Z,31.97
2023-02-22T15:09:16.372Z,31.35
2023-02-22T15:12:20.090Z,29.20
2023-02-22T15:15:20.380Z,27.85
2023-02-22T15:18:19.299Z,36.13
2023-02-22T15:21:14.867Z,32.93
2023-02-22T15:24:09.167Z,33.05
2023-02-22T15:29:46.690Z,35.92
2023-02-22T15:32:53.196Z,34.03
2023-02-22T15:35:34.822Z,31.70
2023-02-22T15:38:31.401Z,32.67
2023-02-22T15:41:30.223Z,30.82
2023-02-22T15:44:23.891Z,34.25
2023-02-22T15:47:18.752Z,32.25
2023-02-22T15:50:25.796Z,26.77
2023-02-22T15:53:28.220Z,32.53
2023-02-22T15:56:22.630Z,29.67
2023-02-22T15:59:18.166Z,33.80
2023-02-22T16:02:12.781Z,32.48
2023-02-22T16:05:07.117Z,31.52
2023-02-22T16:07:59.443Z,32.17
2023-02-22T16:10:56.400Z,31.12
2023-02-22T16:13:54.072Z,30.97
2023-02-22T16:16:45.683Z,32.13
2023-02-22T16:19:42.621Z,29.70
2023-02-22T16:22:35.895Z,32.15
2023-02-22T16:25:31.151Z,34.13
2023-02-22T16:28:33.453Z,31.25
2023-02-22T16:31:27.501Z,29.80
2023-02-22T16:34:20.025Z,32.65
2023-02-22T16:37:23.860Z,34.33
2023-02-22T16:40:22.596Z,29.45
2023-02-22T16:43:18.652Z,27.73
2023-02-22T16:46:10.383Z,28.05
2023-02-22T16:51:46.317Z,32.85
2023-02-22T16:54:40.596Z,28.52
2023-02-22T17:00:19.412Z,31.87
2023-02-22T17:03:13.941Z,31.62
2023-02-22T17:06:06.147Z,31.68
2023-02-22T17:08:57.543Z,27.65
2023-02-22T17:11:51.940Z,28.98
2023-02-22T17:14:44.649Z,30.20
2023-02-22T17:17:36.346Z,29.98
2023-02-22T17:20:30.918Z,28.73
2023-02-22T17:23:22.908Z,31.68
2023-02-22T17:26:15.261Z,31.75
2023-02-22T17:29:07.059Z,31.85
2023-02-22T17:31:58.618Z,27.30
2023-02-22T17:34:50.708Z,29.32
2023-02-22T17:37:42.008Z,33.15
2023-02-22T17:40:33.218Z,34.95
2023-02-22T17:43:25.257Z,31.40
2023-02-22T17:46:17.077Z,33.80
2023-02-22T17:49:09.032Z,31.95
2023-02-22T17:52:02.261Z,34.30
2023-02-22T17:54:53.768Z,38.40
2023-02-22T17:57:45.623Z,31.62
2023-02-22T18:00:39.313Z,30.85
2023-02-22T18:03:30.993Z,29.85
2023-02-22T18:06:25.293Z,30.55
2023-02-22T18:09:18.004Z,27.27
2023-02-22T18:12:09.562Z,31.68
2023-02-22T18:15:01.174Z,31.07
2023-02-22T18:17:53.611Z,34.60
2023-02-22T18:20:46.560Z,23.10
2023-02-22T18:23:38.075Z,24.85
2023-02-22T18:26:29.882Z,23.40
2023-02-22T18:29:21.299Z,25.80
2023-02-22T18:32:13.795Z,25.48
2023-02-22T18:35:08.319Z,31.82
2023-02-22T18:37:59.482Z,24.70
2023-02-22T18:40:51.511Z,26.25
2023-02-22T18:46:23.452Z,26.20
2023-02-22T18:49:15.384Z,24.90
2023-02-22T18:52:06.832Z,29.80
2023-02-22T18:54:57.875Z,28.77
2023-02-22T18:57:51.072Z,25.85
2023-02-22T19:00:45.229Z,31.85
2023-02-22T19:03:39.748Z,29.65
2023-02-22T19:06:31.473Z,24.90
2023-02-22T19:09:23.444Z,24.07
2023-02-22T19:12:16.066Z,24.80
2023-02-22T19:15:08.922Z,24.15
2023-02-22T19:18:00.444Z,25.85
2023-02-22T19:20:59.056Z,25.35
2023-02-22T19:23:50.710Z,24.63
2023-02-22T19:26:44.941Z,24.57
2023-02-22T19:35:19.942Z,24.80
2023-02-22T19:38:11.193Z,30.60
2023-02-22T19:41:12.604Z,31.30
2023-02-22T19:44:04.527Z,28.92
2023-02-22T19:46:56.340Z,31.85
2023-02-22T19:52:39.285Z,32.80
2023-02-22T19:58:09.191Z,34.65
2023-02-22T20:01:00.720Z,32.95
2023-02-22T20:03:54.574Z,35.03
2023-02-22T20:09:40.806Z,33.35
2023-02-22T20:12:32.520Z,34.58
2023-02-22T20:15:24.381Z,33.95
2023-02-22T20:18:15.838Z,34.30
2023-02-22T20:21:11.170Z,34.48
2023-02-22T20:24:04.876Z,37.00
2023-02-22T20:26:58.517Z,35.15
2023-02-22T20:29:50.441Z,38.05
2023-02-22T20:48:30.146Z,36.08
2023-02-22T20:51:23.020Z,33.95
2023-02-22T20:54:14.880Z,36.00
2023-02-22T20:59:49.853Z,31.80
2023-02-22T21:02:41.796Z,31.68
2023-02-22T21:05:33.570Z,32.98
2023-02-22T21:08:25.458Z,30.77
2023-02-22T21:11:19.907Z,33.53
2023-02-22T21:14:14.731Z,32.48
2023-02-22T21:17:07.909Z,35.08
2023-02-22T21:19:59.855Z,34.55
2023-02-22T21:25:33.655Z,32.98
2023-02-22T21:28:29.768Z,32.03
2023-02-22T21:31:19.190Z,32.73
2023-02-22T21:34:16.357Z,30.32
2023-02-22T21:37:08.542Z,30.25
2023-02-22T21:40:00.360Z,30.95
2023-02-22T21:42:52.481Z,29.92
2023-02-22T21:48:26.867Z,29.82
2023-02-22T21:51:20.444Z,30.23
2023-02-22T21:54:13.890Z,34.20
2023-02-22T21:57:06.711Z,38.42
2023-02-22T21:59:58.135Z,30.82
2023-02-22T22:02:52.358Z,32.35
2023-02-22T22:05:46.295Z,29.10
2023-02-22T22:08:40.113Z,29.37
2023-02-22T22:11:31.563Z,31.33
2023-02-22T22:14:24.657Z,27.13
2023-02-22T22:17:16.101Z,30.70
2023-02-22T22:20:11.379Z,32.55
2023-02-22T22:23:03.422Z,30.52
2023-02-22T22:25:56.098Z,27.10
2023-02-22T22:28:49.009Z,32.03
2023-02-22T22:31:40.749Z,32.00
2023-02-22T22:37:16.252Z,29.77
2023-02-22T22:40:11.752Z,30.70
2023-02-22T22:43:02.864Z,29.10
2023-02-22T22:48:38.357Z,28.90
2023-02-22T22:54:38.948Z,28.00
2023-02-22T22:57:34.053Z,28.42
2023-02-22T23:00:29.392Z,29.75
2023-02-22T23:03:22.211Z,28.27
2023-02-22T23:06:14.212Z,26.07
2023-02-22T23:09:11.762Z,28.40
2023-02-22T23:12:09.333Z,31.42
2023-02-22T23:15:02.283Z,28.03
2023-02-22T23:17:59.306Z,25.57
2023-02-22T23:20:55.026Z,29.90
2023-02-22T23:23:47.619Z,25.23
2023-02-22T23:26:38.830Z,26.23
2023-02-22T23:32:10.618Z,23.85
2023-02-22T23:38:00.599Z,25.70
2023-02-22T23:43:38.908Z,31.57
2023-02-22T23:46:33.175Z,30.57
2023-02-22T23:52:06.135Z,32.23
2023-02-22T23:54:57.491Z,31.05
2023-02-22T23:57:49.274Z,30.30
